Time,TemperatureF,DewpointF,PressureIn,WindDirection,WindDirectionDegrees,WindSpeedMPH,WindSpeedGustMPH,Humidity,HourlyPrecipIn,Conditions,Clouds,dailyrainin,SoftwareType,DateUTC
2013-02-07 00:06:00,50.0,26.0,29.99,NNE,22,3.6,-999.0,39,-99.99,,,0.00,Acu-Link.com,2013-02-07 05:06:00,
2013-02-07 00:21:00,50.0,26.0,30.00,NNE,22,5.1,-999.0,39,-99.99,,,0.00,Acu-Link.com,2013-02-07 05:21:00,
2013-02-07 00:36:00,50.0,26.0,30.00,ENE,67,4.7,-999.0,39,-99.99,,,0.00,Acu-Link.com,2013-02-07 05:36:00,
2013-02-07 00:52:00,50.0,24.8,30.00,NNE,22,5.6,-999.0,37,-99.99,,,0.00,Acu-Link.com,2013-02-07 05:52:00,
2013-02-07 01:07:00,50.0,25.4,30.01,NE,45,6.7,-999.0,38,-99.99,,,0.00,Acu-Link.com,2013-02-07 06:07:00,
2013-02-07 01:22:00,48.2,24.4,30.00,NNE,22,3.6,-999.0,39,-99.99,,,0.00,Acu-Link.com,2013-02-07 06:22:00,
2013-02-07 01:38:00,48.2,25.0,30.01,NNE,22,5.1,-999.0,40,-99.99,,,0.00,Acu-Link.com,2013-02-07 06:38:00,
2013-02-07 02:08:00,46.4,24.0,30.02,NNE,22,4.7,-999.0,41,-99.99,,,0.00,Acu-Link.com,2013-02-07 07:08:00,
2013-02-07 02:24:00,46.4,24.0,30.01,NE,45,3.6,-999.0,41,-99.99,,,0.00,Acu-Link.com,2013-02-07 07:24:00,
2013-02-07 02:39:00,46.4,24.0,30.02,NE,45,6.7,-999.0,41,-99.99,,,0.00,Acu-Link.com,2013-02-07 07:39:00,
2013-02-07 02:54:00,46.4,24.0,30.01,East,90,5.6,-999.0,41,-99.99,,,0.00,Acu-Link.com,2013-02-07 07:54:00,
2013-02-07 03:09:00,46.4,24.0,30.01,NE,45,7.8,-999.0,41,-99.99,,,0.00,Acu-Link.com,2013-02-07 08:09:00,
2013-02-07 03:25:00,46.4,24.0,30.02,North,0,4.7,-999.0,41,-99.99,,,0.00,Acu-Link.com,2013-02-07 08:25:00,
2013-02-07 03:40:00,48.2,25.0,30.03,NE,45,6.3,-999.0,40,-99.99,,,0.00,Acu-Link.com,2013-02-07 08:40:00,
2013-02-07 03:55:00,48.2,24.4,30.03,NE,45,6.7,-999.0,39,-99.99,,,0.00,Acu-Link.com,2013-02-07 08:55:00,
2013-02-07 04:11:00,48.2,23.8,30.03,NNW,337,4.0,-999.0,38,-99.99,,,0.00,Acu-Link.com,2013-02-07 09:11:00,
2013-02-07 04:26:00,46.4,22.8,30.03,NNE,22,4.0,-999.0,39,-99.99,,,0.00,Acu-Link.com,2013-02-07 09:26:00,
2013-02-07 04:41:00,46.4,22.2,30.03,NNE,22,4.7,-999.0,38,-99.99,,,0.00,Acu-Link.com,2013-02-07 09:41:00,
2013-02-07 04:57:00,46.4,22.2,30.04,NE,45,3.6,-999.0,38,-99.99,,,0.00,Acu-Link.com,2013-02-07 09:57:00,
2013-02-07 05:12:00,46.4,22.2,30.04,NNE,22,5.6,-999.0,38,-99.99,,,0.00,Acu-Link.com,2013-02-07 10:12:00,
2013-02-07 05:27:00,48.2,23.8,30.03,NNE,22,5.1,-999.0,38,-99.99,,,0.00,Acu-Link.com,2013-02-07 10:27:00,
2013-02-07 05:58:00,48.2,23.8,30.02,SE,135,8.3,-999.0,38,-99.99,,,0.00,Acu-Link.com,2013-02-07 10:58:00,
2013-02-07 06:13:00,46.4,22.8,30.02,NE,45,8.7,-999.0,39,-99.99,,,0.00,Acu-Link.com,2013-02-07 11:13:00,
2013-02-07 06:28:00,46.4,23.4,30.02,East,90,7.2,-999.0,40,-99.99,,,0.00,Acu-Link.com,2013-02-07 11:28:00,
2013-02-07 06:44:00,46.4,23.4,30.03,SE,135,4.7,-999.0,40,-99.99,,,0.00,Acu-Link.com,2013-02-07 11:44:00,
2013-02-07 06:59:00,46.4,24.0,30.04,NE,45,5.1,-999.0,41,-99.99,,,0.00,Acu-Link.com,2013-02-07 11:59:00,
2013-02-07 07:14:00,46.4,24.0,30.04,NNE,22,7.2,-999.0,41,-99.99,,,0.00,Acu-Link.com,2013-02-07 12:14:00,
2013-02-07 07:30:00,46.4,25.1,30.03,North,0,11.4,-999.0,43,-99.99,,,0.00,Acu-Link.com,2013-02-07 12:30:00,
2013-02-07 07:45:00,46.4,25.1,30.04,NE,45,6.7,-999.0,43,-99.99,,,0.00,Acu-Link.com,2013-02-07 12:45:00,
2013-02-07 08:00:00,46.4,25.7,30.03,NNW,337,9.2,-999.0,44,-99.99,,,0.00,Acu-Link.com,2013-02-07 13:00:00,
2013-02-07 08:15:00,46.4,25.7,30.04,NNE,22,8.7,-999.0,44,-99.99,,,0.00,Acu-Link.com,2013-02-07 13:15:00,
2013-02-07 08:31:00,46.4,25.7,30.04,East,90,10.7,-999.0,44,-99.99,,,0.00,Acu-Link.com,2013-02-07 13:31:00,
2013-02-07 08:46:00,46.4,25.1,30.04,East,90,9.8,-999.0,43,-99.99,,,0.00,Acu-Link.com,2013-02-07 13:46:00,
2013-02-07 09:01:00,46.4,25.7,30.03,ENE,67,8.7,-999.0,44,-99.99,,,0.00,Acu-Link.com,2013-02-07 14:01:00,
2013-02-07 09:17:00,46.4,26.2,30.03,NE,45,13.4,-999.0,45,-99.99,,,0.00,Acu-Link.com,2013-02-07 14:17:00,
2013-02-07 09:32:00,46.4,26.8,30.03,NE,45,7.2,-999.0,46,-99.99,,,0.00,Acu-Link.com,2013-02-07 14:32:00,
2013-02-07 09:47:00,46.4,27.3,30.03,East,90,8.3,-999.0,47,-99.99,,,0.00,Acu-Link.com,2013-02-07 14:47:00,
2013-02-07 10:03:00,48.2,29.4,30.02,NE,45,9.2,-999.0,48,-99.99,,,0.00,Acu-Link.com,2013-02-07 15:03:00,
2013-02-07 10:18:00,48.2,29.9,30.02,ENE,67,9.2,-999.0,49,-99.99,,,0.00,Acu-Link.com,2013-02-07 15:18:00,
2013-02-07 10:33:00,48.2,29.9,30.02,NE,45,6.3,-999.0,49,-99.99,,,0.00,Acu-Link.com,2013-02-07 15:33:00,
2013-02-07 10:48:00,48.2,30.4,30.00,ENE,67,8.7,-999.0,50,-99.99,,,0.00,Acu-Link.com,2013-02-07 15:48:00,
2013-02-07 11:04:00,48.2,31.4,30.00,ENE,67,9.2,-999.0,52,-99.99,,,0.00,Acu-Link.com,2013-02-07 16:04:00,
2013-02-07 11:19:00,48.2,31.9,30.00,ENE,67,12.3,-999.0,53,-99.99,,,0.00,Acu-Link.com,2013-02-07 16:19:00,
2013-02-07 11:34:00,46.4,31.6,30.00,ESE,112,5.1,-999.0,56,-99.99,,,0.00,Acu-Link.com,2013-02-07 16:34:00,
2013-02-07 11:50:00,46.4,31.1,29.98,NE,45,7.8,-999.0,55,-99.99,,,0.00,Acu-Link.com,2013-02-07 16:50:00,
2013-02-07 12:05:00,46.4,33.7,29.98,ENE,67,5.1,-999.0,61,-99.99,,,0.00,Acu-Link.com,2013-02-07 17:05:00,
2013-02-07 12:20:00,46.4,35.3,29.98,NNE,22,9.8,-999.0,65,-99.99,,,0.00,Acu-Link.com,2013-02-07 17:20:00,
2013-02-07 12:36:00,44.6,36.1,29.98,NE,45,4.0,-999.0,72,-99.99,,,0.00,Acu-Link.com,2013-02-07 17:36:00,
2013-02-07 12:51:00,44.6,38.2,29.98,East,90,6.7,-999.0,78,-99.99,,,0.01,Acu-Link.com,2013-02-07 17:51:00,
2013-02-07 13:06:00,42.8,37.7,29.97,East,90,4.7,-999.0,82,-99.99,,,0.02,Acu-Link.com,2013-02-07 18:06:00,
2013-02-07 13:21:00,42.8,38.9,29.97,NE,45,2.7,-999.0,86,-99.99,,,0.04,Acu-Link.com,2013-02-07 18:21:00,
2013-02-07 13:37:00,42.8,39.2,29.95,NE,45,7.2,-999.0,87,-99.99,,,0.06,Acu-Link.com,2013-02-07 18:37:00,
2013-02-07 13:52:00,42.8,39.8,29.94,East,90,7.2,-999.0,89,-99.99,,,0.07,Acu-Link.com,2013-02-07 18:52:00,
2013-02-07 14:07:00,42.8,39.5,29.94,NE,45,8.3,-999.0,88,-99.99,,,0.07,Acu-Link.com,2013-02-07 19:07:00,
2013-02-07 14:23:00,42.8,40.1,29.93,NE,45,6.7,-999.0,90,-99.99,,,0.08,Acu-Link.com,2013-02-07 19:23:00,
2013-02-07 14:38:00,42.8,40.4,29.93,NE,45,9.2,-999.0,91,-99.99,,,0.09,Acu-Link.com,2013-02-07 19:38:00,
2013-02-07 14:53:00,42.8,40.4,29.92,NNE,22,4.0,-999.0,91,-99.99,,,0.09,Acu-Link.com,2013-02-07 19:53:00,
2013-02-07 15:09:00,42.8,40.6,29.92,East,90,7.2,-999.0,92,-99.99,,,0.11,Acu-Link.com,2013-02-07 20:09:00,
2013-02-07 15:24:00,42.8,42.3,29.92,ENE,67,6.7,-999.0,98,-99.99,,,0.15,Acu-Link.com,2013-02-07 20:24:00,
2013-02-07 15:39:00,42.8,42.3,29.90,East,90,5.6,-999.0,98,-99.99,,,0.18,Acu-Link.com,2013-02-07 20:39:00,
2013-02-07 15:54:00,42.8,42.3,29.89,ENE,67,5.1,-999.0,98,-99.99,,,0.20,Acu-Link.com,2013-02-07 20:54:00,
2013-02-07 16:10:00,42.8,42.3,29.89,NE,45,6.3,-999.0,98,-99.99,,,0.21,Acu-Link.com,2013-02-07 21:10:00,
2013-02-07 16:25:00,42.8,41.5,29.89,East,90,9.2,-999.0,95,-99.99,,,0.26,Acu-Link.com,2013-02-07 21:25:00,
2013-02-07 16:40:00,42.8,42.3,29.88,NE,45,9.8,-999.0,98,-99.99,,,0.27,Acu-Link.com,2013-02-07 21:40:00,
2013-02-07 16:55:00,42.8,42.3,29.87,East,90,6.3,-999.0,98,-99.99,,,0.28,Acu-Link.com,2013-02-07 21:55:00,
2013-02-07 17:11:00,42.8,42.3,29.86,NE,45,10.7,-999.0,98,-99.99,,,0.30,Acu-Link.com,2013-02-07 22:11:00,
2013-02-07 17:26:00,42.8,42.3,29.85,NNE,22,6.7,-999.0,98,-99.99,,,0.32,Acu-Link.com,2013-02-07 22:26:00,
2013-02-07 17:41:00,42.8,42.3,29.84,NE,45,8.7,-999.0,98,-99.99,,,0.34,Acu-Link.com,2013-02-07 22:41:00,
2013-02-07 17:57:00,42.8,42.3,29.84,ENE,67,7.8,-999.0,98,-99.99,,,0.37,Acu-Link.com,2013-02-07 22:57:00,
2013-02-07 18:12:00,42.8,42.3,29.85,NE,45,4.7,-999.0,98,-99.99,,,0.40,Acu-Link.com,2013-02-07 23:12:00,
2013-02-07 18:27:00,42.8,42.3,29.84,ESE,112,5.6,-999.0,98,-99.99,,,0.48,Acu-Link.com,2013-02-07 23:27:00,
2013-02-07 18:42:00,42.8,42.3,29.85,East,90,6.7,-999.0,98,-99.99,,,0.56,Acu-Link.com,2013-02-07 23:42:00,
2013-02-07 18:58:00,42.8,42.3,29.85,East,90,5.1,-999.0,98,-99.99,,,0.61,Acu-Link.com,2013-02-07 23:58:00,
2013-02-07 19:13:00,42.8,42.3,29.85,ENE,67,5.1,-999.0,98,-99.99,,,0.66,Acu-Link.com,2013-02-08 00:13:00,
2013-02-07 19:28:00,42.8,42.3,29.84,North,0,3.6,-999.0,98,-99.99,,,0.72,Acu-Link.com,2013-02-08 00:28:00,
2013-02-07 19:44:00,42.8,42.3,29.84,NE,45,5.1,-999.0,98,-99.99,,,0.73,Acu-Link.com,2013-02-08 00:44:00,
2013-02-07 19:59:00,42.8,42.3,29.84,NNE,22,7.2,-999.0,98,-99.99,,,0.76,Acu-Link.com,2013-02-08 00:59:00,
2013-02-07 20:14:00,42.8,42.3,29.83,NNE,22,4.7,-999.0,98,-99.99,,,0.78,Acu-Link.com,2013-02-08 01:14:00,
2013-02-07 20:29:00,42.8,42.3,29.83,NE,45,8.3,-999.0,98,-99.99,,,0.81,Acu-Link.com,2013-02-08 01:29:00,
2013-02-07 20:45:00,42.8,42.3,29.83,NNW,337,5.6,-999.0,98,-99.99,,,0.81,Acu-Link.com,2013-02-08 01:45:00,
2013-02-07 21:00:00,42.8,42.3,29.83,NNE,22,8.7,-999.0,98,-99.99,,,0.81,Acu-Link.com,2013-02-08 02:00:00,
2013-02-07 21:15:00,42.8,42.3,29.82,NE,45,4.0,-999.0,98,-99.99,,,0.81,Acu-Link.com,2013-02-08 02:15:00,
2013-02-07 21:30:00,42.8,42.3,29.81,NE,45,8.7,-999.0,98,-99.99,,,0.81,Acu-Link.com,2013-02-08 02:30:00,
2013-02-07 21:46:00,42.8,42.3,29.82,NE,45,8.7,-999.0,98,-99.99,,,0.81,Acu-Link.com,2013-02-08 02:46:00,
2013-02-07 22:01:00,42.8,42.3,29.82,ENE,67,8.3,-999.0,98,-99.99,,,0.81,Acu-Link.com,2013-02-08 03:01:00,
2013-02-07 22:16:00,42.8,42.3,29.82,East,90,7.8,-999.0,98,-99.99,,,0.81,Acu-Link.com,2013-02-08 03:16:00,
2013-02-07 22:32:00,42.8,42.3,29.82,NE,45,5.1,-999.0,98,-99.99,,,0.83,Acu-Link.com,2013-02-08 03:32:00,
2013-02-07 22:47:00,42.8,42.3,29.82,NNE,22,6.7,-999.0,98,-99.99,,,0.83,Acu-Link.com,2013-02-08 03:47:00,
2013-02-07 23:02:00,42.8,42.0,29.81,NE,45,6.3,-999.0,97,-99.99,,,0.83,Acu-Link.com,2013-02-08 04:02:00,
2013-02-07 23:17:00,42.8,42.3,29.81,ENE,67,9.8,-999.0,98,-99.99,,,0.83,Acu-Link.com,2013-02-08 04:17:00,
2013-02-07 23:33:00,42.8,40.9,29.79,NE,45,11.9,-999.0,93,-99.99,,,1.51,Acu-Link.com,2013-02-08 04:33:00,
2013-02-07 23:48:00,42.8,40.6,29.79,ENE,67,10.3,-999.0,92,-99.99,,,1.51,Acu-Link.com,2013-02-08 04:48:00,